Weather History for KBHB - November, 2012

Change the Weather History Date:

Friday, November 16, 2012

  Actual Average Record
Temperature  
Mean Temperature 34 °F -  
Max Temperature 39 °F 42 °F 62 °F (1956)
Min Temperature 28 °F 27 °F 15 °F (1980)
Degree Days  
Heating Degree Days 32    
Moisture  
Dew Point 30 °F    
Average Humidity 82    
Maximum Humidity 100    
Minimum Humidity 65    
Precipitation  
Precipitation 0.00 in - - ()
Sea Level Pressure  
Sea Level Pressure 30.31 in    
Wind  
Wind Speed 5 mph (North)    
Max Wind Speed 9 mph    
Max Gust Speed -    
Visibility 10 miles    
Events      
Averages and records for this station are not official NWS values.
T = Trace of Precipitation, MM = Missing Value Source: NWS Daily Summary

Daily Weather History Graph

Daily Weather History Graph

Search for Another Location

Airport or City:

Trip Planner

Search our weather history database for the weather conditions in past years. The results will help you decide how hot, cold, wet, or windy it might be!

Date:

Astronomy

Nov. 16, 2012 Rise Set
Actual Time 6:31 AM EST 4:04 PM EST
Civil Twilight 5:59 AM EST 4:36 PM EST
Nautical Twilight 5:24 AM EST 5:11 PM EST
Astronomical Twilight 4:50 AM EST 5:45 PM EST
Moon 9:24 AM EST (11/16) 6:58 PM EST (11/16)
Length of Visible Light 10h 36m
Length of Day
9h 33m
Waxing Crescent, 11% of the Moon is Illuminated
Nov 16
Waxing Crescent
Nov 20
First Quarter
Nov 28
Full
Dec 6
Last Quarter
Dec 13
New

Hourly Weather History & Observations

Time (EST) Temp. Windchill Dew Point Humidity Pressure Visibility Wind Dir Wind Speed Gust Speed Precip Events Conditions
12:15 AM 35.6 °F 31.7 °F 30.2 °F 81% 30.29 in 10.0 mi North 4.6 mph - N/A   Overcast
12:35 AM 35.6 °F 32.8 °F 30.2 °F 81% 30.30 in 10.0 mi North 3.5 mph - N/A   Overcast
12:55 AM 35.6 °F 32.8 °F 32.0 °F 87% 30.30 in 10.0 mi North 3.5 mph - N/A   Overcast
1:15 AM 35.6 °F 32.8 °F 32.0 °F 87% 30.30 in 10.0 mi North 3.5 mph - N/A   Overcast
1:55 AM 35.6 °F 31.7 °F 32.0 °F 87% 30.29 in 10.0 mi North 4.6 mph - N/A   Overcast
2:15 AM 35.6 °F 32.8 °F 32.0 °F 87% 30.29 in 10.0 mi NNW 3.5 mph - N/A   Overcast
2:35 AM 35.6 °F 32.8 °F 32.0 °F 87% 30.29 in 10.0 mi North 3.5 mph - N/A   Overcast
2:55 AM 35.6 °F - 32.0 °F 87% 30.28 in 10.0 mi Calm Calm - N/A   Overcast
3:15 AM 35.6 °F - 32.0 °F 87% 30.28 in 10.0 mi Calm Calm - N/A   Overcast
3:35 AM 35.6 °F 30.7 °F 32.0 °F 87% 30.28 in 10.0 mi North 5.8 mph - N/A   Overcast
3:55 AM 35.6 °F 31.7 °F 30.2 °F 81% 30.27 in 10.0 mi North 4.6 mph - N/A   Overcast
4:15 AM 35.6 °F 32.8 °F 30.2 °F 81% 30.28 in 10.0 mi North 3.5 mph - N/A   Overcast
4:35 AM 35.6 °F 30.7 °F 30.2 °F 81% 30.28 in 10.0 mi North 5.8 mph - N/A   Overcast
4:55 AM 35.6 °F 30.7 °F 30.2 °F 81% 30.28 in 10.0 mi North 5.8 mph - N/A   Overcast
5:15 AM 35.6 °F 30.7 °F 30.2 °F 81% 30.28 in 10.0 mi North 5.8 mph - N/A   Overcast
5:35 AM 33.8 °F 28.6 °F 30.2 °F 87% 30.27 in 10.0 mi North 5.8 mph - N/A   Overcast
5:55 AM 33.8 °F 27.7 °F 30.2 °F 87% 30.28 in 10.0 mi North 6.9 mph - N/A   Overcast
6:15 AM 33.8 °F 28.6 °F 30.2 °F 87% 30.28 in 10.0 mi North 5.8 mph - N/A   Overcast
6:35 AM 33.8 °F 29.6 °F 30.2 °F 87% 30.29 in 10.0 mi North 4.6 mph - N/A   Overcast
6:55 AM 33.8 °F 28.6 °F 30.2 °F 87% 30.29 in 10.0 mi North 5.8 mph - N/A   Overcast
7:15 AM 33.8 °F 28.6 °F 30.2 °F 87% 30.30 in 10.0 mi North 5.8 mph - N/A   Overcast
7:35 AM 33.8 °F 27.7 °F 30.2 °F 87% 30.30 in 10.0 mi North 6.9 mph - N/A   Overcast
7:55 AM 33.8 °F 27.7 °F 30.2 °F 87% 30.31 in 10.0 mi North 6.9 mph - N/A   Mostly Cloudy
8:15 AM 33.8 °F 27.7 °F 30.2 °F 87% 30.31 in 10.0 mi North 6.9 mph - N/A   Partly Cloudy
8:35 AM 33.8 °F 29.6 °F 30.2 °F 87% 30.31 in 10.0 mi North 4.6 mph - N/A   Clear
8:55 AM 35.6 °F 29.9 °F 30.2 °F 81% 30.31 in 10.0 mi North 6.9 mph - N/A   Clear
9:15 AM 35.6 °F 29.9 °F 30.2 °F 81% 30.31 in 10.0 mi North 6.9 mph - N/A   Clear
9:35 AM 35.6 °F 29.9 °F 30.2 °F 81% 30.31 in 10.0 mi North 6.9 mph - N/A   Clear
9:55 AM 35.6 °F 29.2 °F 30.2 °F 81% 30.31 in 10.0 mi NNE 8.1 mph - N/A   Clear
10:15 AM 37.4 °F 31.4 °F 30.2 °F 75% 30.31 in 10.0 mi North 8.1 mph - N/A   Clear
10:35 AM 37.4 °F 32.8 °F 30.2 °F 75% 30.31 in 10.0 mi North 5.8 mph - N/A   Clear
10:55 AM 37.4 °F 32.1 °F 30.2 °F 75% 30.29 in 10.0 mi North 6.9 mph - N/A   Clear
11:15 AM 37.4 °F 30.8 °F 30.2 °F 75% 30.29 in 10.0 mi NNW 9.2 mph - N/A   Clear
11:35 AM 37.4 °F 33.8 °F 30.2 °F 75% 30.29 in 10.0 mi NNW 4.6 mph - N/A   Clear
11:55 AM 37.4 °F 32.8 °F 30.2 °F 75% 30.28 in 10.0 mi NW 5.8 mph - N/A   Clear
12:15 PM 37.4 °F 32.1 °F 30.2 °F 75% 30.28 in 10.0 mi North 6.9 mph - N/A   Clear
12:35 PM 37.4 °F 31.4 °F 30.2 °F 75% 30.28 in 10.0 mi North 8.1 mph - N/A   Clear
12:55 PM 39.2 °F 35.0 °F 30.2 °F 70% 30.27 in 10.0 mi NNE 5.8 mph - N/A   Clear
1:15 PM 39.2 °F 34.2 °F 30.2 °F 70% 30.27 in 10.0 mi NNW 6.9 mph - N/A   Clear
1:35 PM 39.2 °F 34.2 °F 30.2 °F 70% 30.27 in 10.0 mi North 6.9 mph - N/A   Clear
1:55 PM 39.2 °F 34.2 °F 30.2 °F 70% 30.26 in 10.0 mi North 6.9 mph - N/A   Clear
2:15 PM 39.2 °F 33.6 °F 30.2 °F 70% 30.27 in 10.0 mi North 8.1 mph - N/A   Clear
2:35 PM 39.2 °F 34.2 °F 30.2 °F 70% 30.28 in 10.0 mi North 6.9 mph - N/A   Clear
2:55 PM 39.2 °F 35.0 °F 30.2 °F 70% 30.28 in 10.0 mi NNW 5.8 mph - N/A   Clear
3:15 PM 39.2 °F 35.0 °F 28.4 °F 65% 30.28 in 10.0 mi NNW 5.8 mph - N/A   Clear
3:35 PM 37.4 °F 32.8 °F 28.4 °F 70% 30.29 in 10.0 mi NNW 5.8 mph - N/A   Clear
3:55 PM 37.4 °F 34.9 °F 28.4 °F 70% 30.30 in 10.0 mi NNW 3.5 mph - N/A   Clear
4:15 PM 35.6 °F - 28.4 °F 75% 30.30 in 10.0 mi Calm Calm - N/A   Clear
4:35 PM 35.6 °F 32.8 °F 28.4 °F 75% 30.32 in 10.0 mi NW 3.5 mph - N/A   Clear
4:55 PM 35.6 °F 32.8 °F 28.4 °F 75% 30.32 in 10.0 mi NW 3.5 mph - N/A   Clear
5:15 PM 33.8 °F 30.8 °F 28.4 °F 81% 30.32 in 10.0 mi NNW 3.5 mph - N/A   Clear
5:35 PM 33.8 °F 29.6 °F 30.2 °F 87% 30.32 in 10.0 mi North 4.6 mph - N/A   Clear
5:55 PM 33.8 °F 30.8 °F 28.4 °F 81% 30.33 in 10.0 mi North 3.5 mph - N/A   Clear
6:15 PM 33.8 °F 30.8 °F 28.4 °F 81% 30.33 in 10.0 mi North 3.5 mph - N/A   Clear
6:35 PM 33.8 °F 30.8 °F 28.4 °F 81% 30.33 in 10.0 mi North 3.5 mph - N/A   Clear
6:55 PM 33.8 °F 30.8 °F 28.4 °F 81% 30.33 in 10.0 mi NNE 3.5 mph - N/A   Clear
7:15 PM 33.8 °F - 28.4 °F 81% 30.34 in 10.0 mi Calm Calm - N/A   Clear
7:35 PM 33.8 °F 30.8 °F 28.4 °F 81% 30.34 in 10.0 mi North 3.5 mph - N/A   Clear
7:55 PM 33.8 °F - 28.4 °F 81% 30.34 in 10.0 mi Calm Calm - N/A   Clear
8:15 PM 33.8 °F - 28.4 °F 81% 30.35 in 10.0 mi Calm Calm - N/A   Clear
8:55 PM 30.2 °F - 28.4 °F 93% 30.36 in 10.0 mi Calm Calm - N/A   Clear
9:15 PM 30.2 °F - 28.4 °F 93% 30.37 in 10.0 mi Calm Calm - N/A   Clear
9:35 PM 28.4 °F - 28.4 °F 100% 30.37 in 10.0 mi Calm Calm - N/A   Clear
9:55 PM 28.4 °F - 26.6 °F 93% 30.37 in 10.0 mi Calm Calm - N/A   Clear
10:15 PM 30.2 °F 26.7 °F 28.4 °F 93% 30.37 in 10.0 mi NW 3.5 mph - N/A   Clear
10:35 PM 30.2 °F 25.4 °F 28.4 °F 93% 30.38 in 10.0 mi NNW 4.6 mph - N/A   Clear
10:55 PM 30.2 °F 25.4 °F 30.2 °F 100% 30.39 in 10.0 mi NNW 4.6 mph - N/A   Clear
11:15 PM 30.2 °F 25.4 °F 28.4 °F 93% 30.39 in 10.0 mi NNW 4.6 mph - N/A   Clear
11:35 PM 30.2 °F 25.4 °F 28.4 °F 93% 30.40 in 10.0 mi NW 4.6 mph - N/A   Clear
11:55 PM 32.0 °F 28.7 °F 28.4 °F 87% 30.40 in 10.0 mi NW 3.5 mph - N/A   Clear